Time;durP1;ratioP1;P1;durP2;ratioP2;P2;SDS_P1;SDS_P2;PMS_P1;PMS_P2;Temp;Humidity;BMP_temperature;BMP_pressure;BME280_temperature;BME280_humidity;BME280_pressure;Samples;Min_cycle;Max_cycle;Signal;HPM_P1;HPM_P2
2023/03/30 00:00:41;;;;;;;72.43;50.20;;;17.00;68.30;;;;;;4979470;28;89825;-76
2023/03/30 00:03:08;;;;;;;72.53;50.60;;;17.00;68.30;;;;;;4960867;28;91856;-76
2023/03/30 00:05:34;;;;;;;73.97;50.30;;;17.00;68.50;;;;;;4950787;28;96579;-75
2023/03/30 00:07:59;;;;;;;73.57;50.38;;;16.90;68.30;;;;;;4979564;28;89998;-77
2023/03/30 00:10:26;;;;;;;71.82;50.13;;;16.90;68.50;;;;;;4969028;28;89713;-79
2023/03/30 00:12:51;;;;;;;73.25;50.22;;;17.00;68.40;;;;;;4971397;28;90765;-77
2023/03/30 00:15:20;;;;;;;72.18;50.17;;;17.00;68.20;;;;;;4961720;28;91894;-74
2023/03/30 00:17:46;;;;;;;73.00;50.47;;;17.00;68.30;;;;;;4966617;28;90532;-71
2023/03/30 00:20:13;;;;;;;72.30;50.33;;;16.90;68.50;;;;;;4968804;28;89184;-74
2023/03/30 00:22:40;;;;;;;75.25;50.55;;;16.90;68.20;;;;;;4959242;28;90388;-75
2023/03/30 00:25:09;;;;;;;71.68;50.00;;;17.00;68.20;;;;;;4967459;28;89621;-75
2023/03/30 00:27:36;;;;;;;72.05;49.88;;;16.90;68.40;;;;;;4969602;28;92164;-74
2023/03/30 00:30:03;;;;;;;73.93;50.60;;;16.90;68.40;;;;;;4968605;28;90946;-74
2023/03/30 00:32:29;;;;;;;73.45;50.53;;;16.90;68.40;;;;;;4968889;28;91755;-76
2023/03/30 00:34:55;;;;;;;73.38;50.22;;;16.80;68.60;;;;;;4970203;28;90810;-76
2023/03/30 00:37:21;;;;;;;73.90;50.40;;;16.80;68.70;;;;;;4967407;28;90060;-77
2023/03/30 00:39:47;;;;;;;72.32;50.25;;;16.90;68.60;;;;;;4965381;28;97610;-77
2023/03/30 00:42:15;;;;;;;72.93;50.22;;;16.90;68.60;;;;;;4966885;28;89832;-75
2023/03/30 00:45:19;;;;;;;73.07;50.25;;;16.90;68.60;;;;;;4974750;28;90282;-76
2023/03/30 00:48:10;;;;;;;71.55;50.13;;;16.90;68.70;;;;;;4972253;28;89521;-74
2023/03/30 00:50:50;;;;;;;71.90;50.07;;;16.90;68.70;;;;;;4971359;28;90030;-75
2023/03/30 00:53:21;;;;;;;71.63;50.05;;;16.80;68.60;;;;;;4964745;28;91927;-75
2023/03/30 00:55:49;;;;;;;71.07;49.53;;;16.80;68.80;;;;;;4974997;28;90631;-75
2023/03/30 00:58:16;;;;;;;71.95;49.85;;;16.80;69.10;;;;;;4971920;28;91252;-74
2023/03/30 01:00:45;;;;;;;71.53;49.97;;;16.80;68.80;;;;;;4970352;28;91575;-76
2023/03/30 01:03:31;;;;;;;71.57;49.80;;;16.80;68.90;;;;;;4959146;28;90452;-74
2023/03/30 01:05:59;;;;;;;72.63;49.50;;;16.70;69.00;;;;;;4968609;28;89931;-75
2023/03/30 01:08:31;;;;;;;71.40;49.95;;;16.70;68.90;;;;;;4965873;28;89813;-78
2023/03/30 01:11:00;;;;;;;72.35;49.90;;;16.70;69.10;;;;;;4962928;28;90648;-76
2023/03/30 01:13:31;;;;;;;71.95;49.83;;;16.70;68.90;;;;;;4964371;28;90785;-76
2023/03/30 01:16:08;;;;;;;71.82;49.95;;;16.70;68.80;;;;;;4977114;28;90355;-75
2023/03/30 01:19:05;;;;;;;70.93;49.72;;;16.70;69.00;;;;;;4954580;28;91810;-74
2023/03/30 01:22:06;;;;;;;71.38;49.95;;;16.70;69.00;;;;;;4964167;28;90254;-76
2023/03/30 01:25:10;;;;;;;71.38;49.85;;;16.60;69.00;;;;;;4965144;28;89913;-77
2023/03/30 01:28:00;;;;;;;71.55;49.63;;;16.60;69.30;;;;;;4966733;28;95909;-74
2023/03/30 01:31:17;;;;;;;71.95;49.95;;;16.60;69.30;;;;;;4953695;28;90621;-77
2023/03/30 01:34:16;;;;;;;71.53;49.95;;;16.60;69.30;;;;;;4970338;28;94071;-75
2023/03/30 01:37:10;;;;;;;71.82;50.10;;;16.60;69.30;;;;;;4944682;28;90247;-74
2023/03/30 01:39:54;;;;;;;71.05;49.78;;;16.50;69.30;;;;;;4967819;28;91478;-76
2023/03/30 01:42:26;;;;;;;72.32;49.97;;;16.60;69.20;;;;;;4969108;28;90417;-76
2023/03/30 01:45:21;;;;;;;;;;;16.60;69.20;;;;;;4973544;28;89850;-76
2023/03/30 01:48:00;;;;;;;70.57;49.75;;;16.60;68.90;;;;;;4955087;28;91712;-75
2023/03/30 01:50:49;;;;;;;70.63;49.75;;;16.60;69.10;;;;;;4976003;28;91356;-74
2023/03/30 01:53:34;;;;;;;71.00;49.72;;;16.60;68.90;;;;;;4969785;28;89544;-73
2023/03/30 01:56:17;;;;;;;71.00;49.72;;;16.60;68.90;;;;;;4979258;28;89854;-76
2023/03/30 01:59:01;;;;;;;71.50;49.95;;;16.60;68.90;;;;;;4979445;28;90927;-75
2023/03/30 02:01:32;;;;;;;70.82;49.60;;;16.60;69.00;;;;;;4978348;28;94577;-77
2023/03/30 02:03:59;;;;;;;71.13;49.75;;;16.60;69.10;;;;;;4975217;28;96367;-75
2023/03/30 02:06:37;;;;;;;71.63;50.17;;;16.60;68.70;;;;;;4974299;28;88944;-74
2023/03/30 02:09:04;;;;;;;71.38;50.05;;;16.60;68.80;;;;;;4979022;28;90116;-76
2023/03/30 02:11:31;;;;;;;71.57;49.90;;;16.60;68.80;;;;;;4977317;28;90351;-76
2023/03/30 02:13:59;;;;;;;70.85;49.95;;;16.60;68.90;;;;;;4979443;28;96102;-75
2023/03/30 02:16:43;;;;;;;71.50;50.15;;;16.60;69.60;;;;;;4973678;28;89659;-77
2023/03/30 02:19:08;;;;;;;71.57;49.88;;;16.50;68.80;;;;;;4973527;28;90544;-76
2023/03/30 02:21:34;;;;;;;71.97;49.85;;;16.50;68.90;;;;;;4968801;28;90809;-74
2023/03/30 02:24:03;;;;;;;71.28;49.75;;;16.50;69.10;;;;;;4972330;28;89510;-77
2023/03/30 02:26:29;;;;;;;72.15;50.10;;;16.50;69.10;;;;;;4970528;28;95347;-75
2023/03/30 02:28:55;;;;;;;71.97;50.25;;;16.50;69.00;;;;;;4970524;28;90496;-77
2023/03/30 02:31:21;;;;;;;70.97;49.92;;;16.50;69.70;;;;;;4977186;28;90343;-76
2023/03/30 02:34:01;;;;;;;70.93;49.83;;;16.50;68.80;;;;;;4968895;28;90082;-77
2023/03/30 02:36:53;;;;;;;70.53;49.67;;;16.50;69.10;;;;;;4968665;28;96750;-75
2023/03/30 02:39:46;;;;;;;70.43;49.63;;;16.50;68.90;;;;;;4974458;28;91361;-76
2023/03/30 02:42:22;;;;;;;71.47;49.95;;;16.50;69.10;;;;;;4971301;28;90702;-73
2023/03/30 02:44:47;;;;;;;72.45;49.83;;;16.40;69.10;;;;;;4971676;28;91308;-77
2023/03/30 02:47:23;;;;;;;71.03;49.63;;;16.50;69.10;;;;;;4969691;28;90282;-75
2023/03/30 02:50:04;;;;;;;70.88;49.90;;;16.40;69.00;;;;;;4966820;28;91745;-75
2023/03/30 02:52:41;;;;;;;70.95;49.45;;;16.50;68.80;;;;;;4988082;28;96522;-74
2023/03/30 02:55:18;;;;;;;71.40;49.65;;;16.50;68.90;;;;;;4964115;28;96144;-76
2023/03/30 02:58:18;;;;;;;71.88;49.88;;;16.50;69.00;;;;;;4976532;28;88991;-76
2023/03/30 03:01:09;;;;;;;70.80;49.92;;;16.40;69.10;;;;;;4969004;28;90094;-76
2023/03/30 03:03:40;;;;;;;70.80;49.97;;;16.40;69.00;;;;;;4962466;28;91383;-73
2023/03/30 03:06:08;;;;;;;70.15;49.67;;;16.40;69.10;;;;;;4967283;28;91224;-74
2023/03/30 03:08:40;;;;;;;71.55;49.90;;;16.40;69.00;;;;;;4964737;28;90982;-74
2023/03/30 03:11:07;;;;;;;70.78;49.80;;;16.40;69.10;;;;;;4965240;28;89944;-76
2023/03/30 03:13:35;;;;;;;70.90;49.58;;;16.40;68.90;;;;;;4964647;28;90372;-75
2023/03/30 03:16:02;;;;;;;72.15;49.72;;;16.40;69.00;;;;;;4966861;28;91422;-75
2023/03/30 03:18:28;;;;;;;70.82;49.67;;;16.40;69.10;;;;;;4976366;28;91000;-73
2023/03/30 03:20:53;;;;;;;71.93;49.67;;;16.40;69.00;;;;;;4971806;28;89993;-75
2023/03/30 03:23:19;;;;;;;70.82;49.72;;;16.40;69.00;;;;;;4971385;28;91203;-76
2023/03/30 03:25:45;;;;;;;71.22;49.88;;;16.40;68.80;;;;;;4969981;28;94988;-77
2023/03/30 03:28:10;;;;;;;71.45;49.85;;;16.40;69.10;;;;;;4961214;28;90743;-72
2023/03/30 03:30:36;;;;;;;70.47;49.67;;;16.40;68.90;;;;;;4973057;28;91185;-73
2023/03/30 03:33:02;;;;;;;71.50;50.03;;;16.40;69.00;;;;;;4968055;28;91515;-73
2023/03/30 03:35:28;;;;;;;70.50;49.63;;;16.40;69.00;;;;;;4965344;28;90327;-76
2023/03/30 03:37:54;;;;;;;70.80;49.88;;;16.40;69.20;;;;;;4961796;28;90241;-77
2023/03/30 03:40:20;;;;;;;71.65;49.72;;;16.40;69.10;;;;;;4967358;28;94427;-78
2023/03/30 03:42:46;;;;;;;71.07;49.95;;;16.40;68.90;;;;;;4961497;28;91641;-74
2023/03/30 03:45:11;;;;;;;70.35;49.38;;;16.40;69.10;;;;;;4959350;28;91803;-74
2023/03/30 03:47:37;;;;;;;71.38;50.03;;;16.30;69.00;;;;;;4961095;28;89373;-75
2023/03/30 03:50:05;;;;;;;70.80;49.85;;;16.40;69.10;;;;;;4959386;28;92778;-74
2023/03/30 03:52:31;;;;;;;71.50;49.80;;;16.40;68.80;;;;;;4959416;28;90428;-75
2023/03/30 03:54:57;;;;;;;70.80;49.70;;;16.40;68.90;;;;;;4960920;28;91246;-75
2023/03/30 03:57:23;;;;;;;70.75;49.97;;;16.30;69.00;;;;;;4966469;28;90455;-76
2023/03/30 03:59:50;;;;;;;71.05;49.95;;;16.30;69.00;;;;;;4964997;28;90086;-75
2023/03/30 04:02:16;;;;;;;72.32;49.78;;;16.30;68.90;;;;;;4954069;28;89944;-74
2023/03/30 04:04:41;;;;;;;72.00;49.65;;;16.30;69.10;;;;;;4953346;28;92409;-75
2023/03/30 04:07:07;;;;;;;70.80;49.90;;;16.30;69.10;;;;;;4963720;28;91374;-74
2023/03/30 04:09:32;;;;;;;71.55;50.15;;;16.30;69.10;;;;;;4961864;28;89881;-77
2023/03/30 04:11:58;;;;;;;70.85;49.55;;;16.30;70.10;;;;;;4954607;28;89919;-75
2023/03/30 04:14:24;;;;;;;70.10;49.53;;;16.20;69.30;;;;;;4962866;28;91460;-74
2023/03/30 04:16:50;;;;;;;72.00;51.03;;;16.20;69.80;;;;;;4968193;22;90652;-60
2023/03/30 04:21:54;;;;;;;71.63;50.03;;;16.10;69.90;;;;;;4956080;22;91716;-65
2023/03/30 04:24:21;;;;;;;71.38;49.67;;;16.00;69.90;;;;;;4965040;28;91314;-62
2023/03/30 04:26:47;;;;;;;71.55;50.13;;;16.00;70.00;;;;;;4964092;28;96224;-65
2023/03/30 04:29:16;;;;;;;71.10;49.65;;;16.10;70.00;;;;;;4967852;28;90679;-65
2023/03/30 04:31:45;;;;;;;71.15;49.83;;;16.10;69.90;;;;;;4952787;28;91604;-66
2023/03/30 04:34:12;;;;;;;72.35;50.13;;;16.10;69.80;;;;;;4966078;28;90841;-68
2023/03/30 04:36:42;;;;;;;71.05;49.92;;;16.10;69.90;;;;;;4966062;28;89469;-60
2023/03/30 04:39:10;;;;;;;70.72;49.90;;;16.00;69.90;;;;;;4961482;28;91170;-65
2023/03/30 04:41:36;;;;;;;71.00;50.25;;;16.10;69.90;;;;;;4967129;28;89941;-69
2023/03/30 04:44:08;;;;;;;72.15;50.05;;;16.00;70.00;;;;;;4966849;28;92094;-68
2023/03/30 04:46:35;;;;;;;71.20;49.90;;;16.10;69.80;;;;;;4967786;28;93347;-64
2023/03/30 04:49:01;;;;;;;72.32;49.95;;;16.00;70.00;;;;;;4966800;28;91976;-66
2023/03/30 04:51:27;;;;;;;71.25;49.85;;;16.00;70.00;;;;;;4961223;28;90562;-67
2023/03/30 04:53:53;;;;;;;71.88;49.92;;;16.00;70.00;;;;;;4966060;28;90009;-69
2023/03/30 04:56:19;;;;;;;70.55;49.65;;;16.00;70.10;;;;;;4970878;28;90359;-68
2023/03/30 04:58:45;;;;;;;70.55;49.90;;;16.00;70.30;;;;;;4965431;28;89798;-62
2023/03/30 05:01:11;;;;;;;71.97;50.00;;;16.00;70.10;;;;;;4963304;28;91353;-64
2023/03/30 05:03:36;;;;;;;71.35;49.95;;;16.00;69.80;;;;;;4961941;28;90699;-67
2023/03/30 05:06:03;;;;;;;72.00;49.92;;;16.00;70.00;;;;;;4974666;28;90264;-69
2023/03/30 05:08:29;;;;;;;71.57;49.88;;;16.10;69.80;;;;;;4967554;28;93255;-69
2023/03/30 05:10:56;;;;;;;74.30;49.90;;;16.10;69.60;;;;;;4966818;28;90927;-69
2023/03/30 05:13:22;;;;;;;71.70;50.00;;;16.10;69.80;;;;;;4969605;28;91957;-69
2023/03/30 05:15:54;;;;;;;71.55;49.97;;;16.20;69.90;;;;;;4975638;28;90225;-69
2023/03/30 05:18:20;;;;;;;72.50;49.95;;;16.10;70.00;;;;;;4972380;28;90008;-68
2023/03/30 05:20:46;;;;;;;72.93;49.97;;;16.10;70.10;;;;;;4975909;28;89927;-70
2023/03/30 05:23:11;;;;;;;72.63;49.95;;;16.10;70.00;;;;;;4971352;28;89816;-66
2023/03/30 05:25:37;;;;;;;72.07;49.67;;;16.00;70.20;;;;;;4976602;28;89092;-67
2023/03/30 05:28:03;;;;;;;71.85;49.90;;;16.20;70.10;;;;;;4979200;28;90300;-69
2023/03/30 05:30:28;;;;;;;75.72;50.35;;;16.10;69.90;;;;;;4971553;28;90217;-69
2023/03/30 05:32:54;;;;;;;72.90;50.25;;;16.10;70.20;;;;;;4957021;28;91663;-65
2023/03/30 05:35:20;;;;;;;71.80;50.38;;;16.20;70.20;;;;;;4956434;28;90135;-70
2023/03/30 05:37:48;;;;;;;74.63;50.20;;;16.10;70.40;;;;;;4970306;28;90208;-66
2023/03/30 05:40:14;;;;;;;71.45;49.90;;;16.10;70.50;;;;;;4963339;28;90198;-65
2023/03/30 05:42:40;;;;;;;72.90;50.15;;;16.10;70.60;;;;;;4967346;27;92193;-69
2023/03/30 05:45:07;;;;;;;74.57;50.55;;;16.10;70.60;;;;;;4963679;28;90281;-69
2023/03/30 05:47:34;;;;;;;73.70;50.30;;;16.10;70.60;;;;;;4966867;28;90542;-69
2023/03/30 05:50:01;;;;;;;75.93;50.50;;;16.10;70.60;;;;;;4966253;28;92687;-67
2023/03/30 05:52:26;;;;;;;76.90;50.30;;;16.00;71.00;;;;;;4976107;28;90447;-69
2023/03/30 05:54:52;;;;;;;84.45;50.45;;;16.10;71.30;;;;;;4976407;28;89575;-69
2023/03/30 05:57:18;;;;;;;72.10;50.13;;;16.10;70.90;;;;;;4975263;28;91232;-69
2023/03/30 05:59:44;;;;;;;73.40;50.25;;;16.20;70.90;;;;;;4971320;28;91876;-69
2023/03/30 06:02:11;;;;;;;76.47;50.28;;;16.10;70.70;;;;;;4965220;28;89960;-69
2023/03/30 06:04:37;;;;;;;75.97;50.80;;;16.10;70.70;;;;;;4974200;28;90563;-68
2023/03/30 06:07:03;;;;;;;79.22;50.17;;;16.20;70.80;;;;;;4981183;28;91472;-69
2023/03/30 06:09:30;;;;;;;74.75;50.65;;;16.20;70.70;;;;;;4971983;28;90313;-69
2023/03/30 06:11:57;;;;;;;73.45;50.42;;;16.20;70.80;;;;;;4971596;28;89937;-62
2023/03/30 06:14:23;;;;;;;73.38;50.47;;;16.10;70.90;;;;;;4974985;28;89168;-65
2023/03/30 06:16:48;;;;;;;79.85;50.95;;;16.10;71.00;;;;;;4966364;28;90866;-69
2023/03/30 06:19:14;;;;;;;74.18;50.47;;;16.10;70.80;;;;;;4971244;28;90459;-67
2023/03/30 06:21:41;;;;;;;74.05;50.58;;;16.10;70.70;;;;;;4972481;28;92317;-69
2023/03/30 06:24:06;;;;;;;74.50;50.53;;;16.10;70.60;;;;;;4978299;28;90615;-69
2023/03/30 06:26:32;;;;;;;74.15;50.45;;;16.10;70.70;;;;;;4986335;28;90175;-69
2023/03/30 06:28:57;;;;;;;72.45;50.17;;;16.10;70.60;;;;;;4976915;28;91108;-68
2023/03/30 06:31:24;;;;;;;74.30;50.53;;;16.10;70.50;;;;;;4958316;28;89758;-68
2023/03/30 06:33:50;;;;;;;72.93;50.13;;;16.10;70.60;;;;;;4957272;28;90675;-66
2023/03/30 06:36:16;;;;;;;74.97;50.72;;;16.30;70.80;;;;;;4967464;28;90076;-64
2023/03/30 06:38:44;;;;;;;74.00;50.45;;;16.50;70.80;;;;;;4970687;28;89760;-64
2023/03/30 06:41:11;;;;;;;75.80;50.65;;;16.50;70.50;;;;;;4964971;28;90002;-72
2023/03/30 06:43:41;;;;;;;74.28;50.20;;;16.50;70.50;;;;;;4971861;28;89445;-64
2023/03/30 06:46:10;;;;;;;86.28;50.63;;;16.60;70.70;;;;;;4967026;28;90925;-67
2023/03/30 06:48:35;;;;;;;73.63;50.67;;;16.60;69.80;;;;;;4970250;28;90926;-67
2023/03/30 06:51:02;;;;;;;76.35;50.80;;;16.70;69.70;;;;;;4969085;28;89903;-65
2023/03/30 06:53:28;;;;;;;76.22;50.67;;;16.60;69.50;;;;;;4969697;28;92073;-62
2023/03/30 06:55:55;;;;;;;75.55;50.97;;;16.50;71.00;;;;;;4970785;28;90322;-61
2023/03/30 06:58:23;;;;;;;77.40;50.63;;;16.60;70.50;;;;;;4979496;28;89970;-64
2023/03/30 07:00:48;;;;;;;74.97;50.60;;;16.70;70.20;;;;;;4966736;28;91138;-67
2023/03/30 07:03:17;;;;;;;74.70;50.45;;;16.70;69.90;;;;;;4946815;28;90059;-56
2023/03/30 07:05:51;;;;;;;73.72;50.38;;;16.70;69.90;;;;;;4966499;28;90363;-61
2023/03/30 07:08:18;;;;;;;74.28;50.20;;;16.70;70.00;;;;;;4970558;28;90555;-60
2023/03/30 07:10:46;;;;;;;74.88;50.67;;;16.70;70.00;;;;;;4972450;28;90421;-68
2023/03/30 07:13:11;;;;;;;77.18;50.60;;;16.70;69.90;;;;;;4986394;28;89397;-59
2023/03/30 07:15:37;;;;;;;72.90;50.45;;;16.60;69.60;;;;;;4974918;28;90399;-68
2023/03/30 07:18:03;;;;;;;75.78;50.45;;;16.70;69.80;;;;;;4977513;28;90972;-66
2023/03/30 07:20:29;;;;;;;75.80;50.72;;;16.70;69.60;;;;;;4977368;28;90605;-69
2023/03/30 07:22:54;;;;;;;75.53;50.70;;;16.70;69.60;;;;;;4982422;28;89731;-67
2023/03/30 07:25:20;;;;;;;74.63;50.65;;;16.70;69.40;;;;;;4976699;28;89095;-68
2023/03/30 07:27:46;;;;;;;76.43;50.72;;;16.80;69.40;;;;;;4965683;28;89375;-66
2023/03/30 07:30:13;;;;;;;73.72;50.45;;;16.80;69.30;;;;;;4968248;28;89243;-66
2023/03/30 07:32:39;;;;;;;75.15;50.65;;;16.90;69.20;;;;;;4964715;28;89549;-67
2023/03/30 07:35:05;;;;;;;75.38;50.35;;;16.90;69.10;;;;;;4966464;28;91564;-74
2023/03/30 07:37:31;;;;;;;74.15;50.67;;;16.90;69.00;;;;;;4962885;28;90022;-66
2023/03/30 07:39:57;;;;;;;75.25;50.35;;;16.90;69.00;;;;;;4963044;28;90399;-60
2023/03/30 07:42:23;;;;;;;75.35;50.72;;;16.90;69.10;;;;;;4967615;28;89695;-62
2023/03/30 07:44:48;;;;;;;74.40;50.47;;;16.90;69.10;;;;;;4969054;28;91683;-68
2023/03/30 07:47:14;;;;;;;73.25;50.65;;;16.90;68.80;;;;;;4977541;28;88983;-66
2023/03/30 07:49:41;;;;;;;75.00;50.55;;;16.90;68.50;;;;;;4975512;28;89136;-70
2023/03/30 07:54:34;;;;;;;75.32;50.80;;;17.00;68.30;;;;;;4940663;28;90415;-68
2023/03/30 07:57:00;;;;;;;76.32;50.63;;;17.00;68.30;;;;;;4942666;28;89172;-67
2023/03/30 07:59:26;;;;;;;74.65;50.60;;;17.00;68.50;;;;;;4953830;28;91204;-66
2023/03/30 08:01:53;;;;;;;75.72;51.10;;;17.00;68.30;;;;;;4959174;28;89479;-68
2023/03/30 08:04:19;;;;;;;75.32;51.00;;;17.00;68.20;;;;;;4952774;28;94286;-61
2023/03/30 08:06:46;;;;;;;73.72;50.80;;;17.00;68.30;;;;;;4959108;28;89739;-68
2023/03/30 08:09:12;;;;;;;73.85;50.10;;;17.00;68.20;;;;;;4956959;28;90910;-62
2023/03/30 08:11:38;;;;;;;78.20;50.85;;;17.10;68.30;;;;;;4955677;28;90395;-61
2023/03/30 08:14:04;;;;;;;75.18;50.95;;;17.00;67.80;;;;;;4956800;28;89884;-66
2023/03/30 08:16:30;;;;;;;76.25;50.80;;;17.00;67.70;;;;;;4954448;28;94573;-72
2023/03/30 08:18:55;;;;;;;77.50;50.75;;;17.00;67.60;;;;;;4953861;28;90637;-69
2023/03/30 08:21:24;;;;;;;74.97;50.45;;;17.00;67.80;;;;;;4939915;28;90406;-67
2023/03/30 08:23:56;;;;;;;78.20;51.03;;;17.00;67.80;;;;;;4954683;28;91140;-65
2023/03/30 08:26:22;;;;;;;75.68;50.85;;;17.10;68.20;;;;;;4949951;28;90964;-59
2023/03/30 08:28:48;;;;;;;76.95;50.92;;;17.20;67.90;;;;;;4956102;28;89201;-64
2023/03/30 08:31:16;;;;;;;76.10;50.95;;;17.20;67.70;;;;;;4954936;28;89788;-59
2023/03/30 08:33:43;;;;;;;78.43;51.17;;;17.20;67.60;;;;;;4953894;28;89519;-70
2023/03/30 08:36:11;;;;;;;75.28;51.03;;;17.30;67.10;;;;;;4953879;28;89697;-64
2023/03/30 08:38:37;;;;;;;74.10;50.67;;;17.20;67.10;;;;;;4957505;28;89308;-61
2023/03/30 08:41:27;;;;;;;75.35;50.60;;;17.30;67.20;;;;;;4954545;28;89188;-62
2023/03/30 08:44:18;;;;;;;75.95;51.05;;;17.30;67.00;;;;;;4958949;28;90624;-67
2023/03/30 08:46:46;;;;;;;74.05;50.47;;;17.30;67.00;;;;;;4951949;28;89344;-61
2023/03/30 08:49:15;;;;;;;75.50;50.80;;;17.30;66.80;;;;;;4954780;28;90717;-61
2023/03/30 08:51:41;;;;;;;75.85;50.65;;;17.20;66.80;;;;;;4957159;28;89919;-64
2023/03/30 08:54:13;;;;;;;73.93;50.78;;;17.20;66.70;;;;;;4956182;28;90177;-69
2023/03/30 08:56:43;;;;;;;74.32;50.85;;;17.20;67.40;;;;;;4953167;28;89998;-69
2023/03/30 08:59:20;;;;;;;76.00;50.90;;;17.10;67.10;;;;;;4954695;28;90134;-61
2023/03/30 09:01:50;;;;;;;77.40;51.10;;;17.10;67.30;;;;;;4957433;28;89476;-66
2023/03/30 09:04:27;;;;;;;76.73;51.07;;;17.10;67.30;;;;;;4950702;28;90069;-66
2023/03/30 09:06:58;;;;;;;74.97;50.97;;;17.30;67.00;;;;;;4957990;28;91730;-72
2023/03/30 09:09:28;;;;;;;75.43;51.13;;;17.20;66.80;;;;;;4959209;28;89512;-69
2023/03/30 09:12:10;;;;;;;77.78;50.92;;;17.30;66.60;;;;;;4959604;28;89995;-60
2023/03/30 09:15:01;;;;;;;77.90;51.28;;;17.30;67.30;;;;;;4956178;28;91141;-69
2023/03/30 09:17:50;;;;;;;77.57;50.72;;;17.30;67.00;;;;;;4950799;28;91376;-61
2023/03/30 09:20:28;;;;;;;77.70;50.85;;;17.40;66.90;;;;;;4946627;28;89329;-62
2023/03/30 09:22:57;;;;;;;81.40;51.25;;;17.40;66.70;;;;;;4956679;28;89671;-61
2023/03/30 09:25:46;;;;;;;76.53;51.22;;;17.40;67.20;;;;;;4956034;28;90297;-68
2023/03/30 09:28:30;;;;;;;75.57;51.22;;;17.40;67.10;;;;;;4956032;28;89712;-60
2023/03/30 09:31:23;;;;;;;78.47;51.25;;;17.40;66.50;;;;;;4953643;28;89102;-65
2023/03/30 09:34:24;;;;;;;76.88;51.33;;;17.40;66.70;;;;;;4956573;28;88684;-61
2023/03/30 09:37:11;;;;;;;76.30;51.00;;;17.40;66.30;;;;;;4950765;28;90670;-61
2023/03/30 09:39:37;;;;;;;76.25;51.22;;;17.40;65.70;;;;;;4948494;28;90700;-65
2023/03/30 09:42:40;;;;;;;84.45;51.17;;;17.40;66.30;;;;;;4952433;28;90871;-69
2023/03/30 09:45:21;;;;;;;76.63;51.25;;;17.40;66.60;;;;;;4932264;28;89640;-62
2023/03/30 09:47:46;;;;;;;81.40;51.23;;;17.30;66.50;;;;;;4956841;28;91501;-59
2023/03/30 09:50:25;;;;;;;72.90;50.70;;;17.30;66.80;;;;;;4948444;28;91376;-59
2023/03/30 09:53:02;;;;;;;77.05;51.15;;;17.30;67.30;;;;;;4948780;28;90151;-59
2023/03/30 09:55:30;;;;;;;78.43;50.97;;;17.30;67.00;;;;;;4959329;28;90165;-53
2023/03/30 09:58:10;;;;;;;80.30;51.65;;;17.30;66.60;;;;;;4954749;28;90083;-59
2023/03/30 10:00:36;;;;;;;76.10;51.28;;;17.30;66.50;;;;;;4956045;28;89086;-57
2023/03/30 10:03:05;;;;;;;79.30;51.42;;;17.30;66.50;;;;;;4958923;28;90463;-58
2023/03/30 10:05:35;;;;;;;77.43;51.25;;;17.20;66.40;;;;;;4958428;28;89911;-59
2023/03/30 10:08:18;;;;;;;75.80;51.25;;;17.20;66.50;;;;;;4959429;28;90883;-59
2023/03/30 10:10:44;;;;;;;76.32;51.17;;;17.20;66.50;;;;;;4955734;28;89991;-57
2023/03/30 10:13:15;;;;;;;77.93;51.55;;;17.20;66.50;;;;;;4962385;28;89823;-58
2023/03/30 10:15:43;;;;;;;;;;;17.20;66.60;;;;;;4955524;28;91539;-56
2023/03/30 10:18:35;;;;;;;76.63;50.65;;;17.20;66.80;;;;;;4954315;28;90624;-59
2023/03/30 10:21:04;;;;;;;76.43;51.13;;;17.10;67.20;;;;;;4955743;28;90058;-57
2023/03/30 10:23:42;;;;;;;81.10;51.33;;;17.20;66.90;;;;;;4962056;28;90390;-62
2023/03/30 10:26:17;;;;;;;79.00;51.40;;;17.30;66.50;;;;;;4961849;28;88868;-66
2023/03/30 10:28:53;;;;;;;76.65;51.30;;;17.30;66.50;;;;;;4956262;28;90960;-58
2023/03/30 10:31:20;;;;;;;77.53;51.42;;;17.40;66.60;;;;;;4960060;28;89603;-58
2023/03/30 10:33:47;;;;;;;78.07;51.55;;;17.40;66.50;;;;;;4958132;28;90651;-59
2023/03/30 10:36:15;;;;;;;80.38;51.70;;;17.40;66.50;;;;;;4957527;28;90127;-55
2023/03/30 10:38:42;;;;;;;78.20;51.63;;;17.40;66.30;;;;;;4959162;28;91165;-60
2023/03/30 10:41:12;;;;;;;79.30;51.58;;;17.50;67.50;;;;;;4946651;28;90624;-62
2023/03/30 10:43:40;;;;;;;78.63;51.53;;;17.40;67.20;;;;;;4960565;28;90705;-59
2023/03/30 10:46:18;;;;;;;78.35;51.67;;;17.40;67.10;;;;;;4954931;28;89689;-61
2023/03/30 10:49:11;;;;;;;78.40;51.45;;;17.40;66.90;;;;;;4948491;28;90289;-61
2023/03/30 10:52:07;;;;;;;79.05;51.88;;;17.50;66.80;;;;;;4947858;28;90597;-60
2023/03/30 10:54:44;;;;;;;80.70;52.03;;;17.50;66.50;;;;;;4952109;28;90403;-59
2023/03/30 10:57:14;;;;;;;77.53;51.97;;;17.50;66.70;;;;;;4954466;28;89772;-59
2023/03/30 11:00:28;;;;;;;79.05;51.58;;;17.50;66.60;;;;;;4955602;28;95148;-61
2023/03/30 11:03:13;;;;;;;78.47;51.72;;;17.50;66.50;;;;;;4938707;28;90174;-59
2023/03/30 11:05:44;;;;;;;79.78;51.97;;;17.50;66.50;;;;;;4941729;28;89413;-61
2023/03/30 11:08:31;;;;;;;80.18;51.65;;;17.60;66.50;;;;;;4945322;28;89638;-58
2023/03/30 11:10:58;;;;;;;80.53;51.83;;;17.60;66.50;;;;;;4952228;28;94902;-61
2023/03/30 11:13:42;;;;;;;80.88;52.05;;;17.60;66.50;;;;;;4943748;28;91009;-58
2023/03/30 11:16:22;;;;;;;80.10;51.85;;;17.60;66.50;;;;;;4942180;28;90275;-62
2023/03/30 11:19:30;;;;;;;81.70;51.97;;;17.50;66.80;;;;;;4943663;28;91223;-59
2023/03/30 11:22:25;;;;;;;81.38;52.35;;;17.50;67.00;;;;;;4946436;28;89999;-55
2023/03/30 11:24:53;;;;;;;80.18;51.78;;;17.50;67.40;;;;;;4940166;28;90287;-63
2023/03/30 11:27:31;;;;;;;80.88;52.75;;;17.50;67.40;;;;;;4946391;28;90967;-62
2023/03/30 11:30:15;;;;;;;78.55;51.92;;;17.50;67.70;;;;;;4957421;28;89836;-63
2023/03/30 11:32:53;;;;;;;79.72;52.28;;;17.50;67.60;;;;;;4960903;28;91332;-62
2023/03/30 11:35:49;;;;;;;78.45;52.05;;;17.50;67.70;;;;;;4958915;28;90945;-59
2023/03/30 11:38:46;;;;;;;82.15;52.08;;;17.50;67.70;;;;;;4956311;28;90078;-61
2023/03/30 11:41:15;;;;;;;79.47;51.97;;;17.50;67.80;;;;;;4955021;28;90766;-60
2023/03/30 11:43:42;;;;;;;80.70;52.42;;;17.40;67.70;;;;;;4950980;28;95200;-62
2023/03/30 11:46:22;;;;;;;82.20;52.45;;;17.40;67.80;;;;;;4950681;28;89703;-62
2023/03/30 11:48:56;;;;;;;80.88;52.08;;;17.50;67.70;;;;;;4957528;28;90213;-62
2023/03/30 11:51:27;;;;;;;81.00;52.63;;;17.40;67.70;;;;;;4948596;28;90239;-62
2023/03/30 11:53:59;;;;;;;;;;;17.40;67.70;;;;;;4956943;28;91174;-61
2023/03/30 11:56:42;;;;;;;78.85;52.20;;;17.40;67.90;;;;;;4954323;28;91122;-62
2023/03/30 11:59:27;;;;;;;81.80;52.35;;;17.50;67.80;;;;;;4954629;28;91202;-61
2023/03/30 12:02:44;;;;;;;79.90;51.88;;;17.60;67.50;;;;;;4933740;28;89939;-59
2023/03/30 12:05:50;;;;;;;80.00;52.38;;;17.60;67.20;;;;;;4922848;28;90147;-61
2023/03/30 12:08:51;;;;;;;80.22;52.55;;;17.70;67.30;;;;;;4881420;28;95539;-62
2023/03/30 12:11:38;;;;;;;85.80;53.13;;;17.70;66.90;;;;;;4870620;28;95042;-64
2023/03/30 12:14:30;;;;;;;81.95;52.35;;;17.70;67.10;;;;;;4948433;28;89323;-65
2023/03/30 12:17:06;;;;;;;82.53;52.65;;;17.80;67.40;;;;;;4952178;28;90056;-61
2023/03/30 12:19:45;;;;;;;80.97;52.85;;;17.70;67.10;;;;;;4945352;28;90361;-62
2023/03/30 12:22:24;;;;;;;82.13;52.45;;;17.70;67.30;;;;;;4951444;28;91205;-62
2023/03/30 12:24:57;;;;;;;83.00;52.67;;;17.70;67.20;;;;;;4945936;28;90421;-65
2023/03/30 12:27:27;;;;;;;79.70;52.28;;;17.70;67.20;;;;;;4942068;28;90242;-65
2023/03/30 12:30:10;;;;;;;82.25;52.38;;;17.70;67.50;;;;;;4943750;28;90848;-64
2023/03/30 12:32:36;;;;;;;83.32;52.55;;;17.70;67.20;;;;;;4936065;28;89716;-63
2023/03/30 12:35:42;;;;;;;80.97;52.05;;;17.90;66.90;;;;;;4925719;28;90530;-62
2023/03/30 12:38:19;;;;;;;82.70;52.60;;;17.60;67.90;;;;;;4948364;28;91536;-64
2023/03/30 12:40:46;;;;;;;81.22;52.33;;;17.60;67.80;;;;;;4942135;28;89693;-65
2023/03/30 12:43:25;;;;;;;82.70;52.30;;;17.60;67.70;;;;;;4961287;28;90271;-63
2023/03/30 12:46:24;;;;;;;80.10;52.20;;;17.70;67.70;;;;;;4954825;28;90100;-64
2023/03/30 12:48:53;;;;;;;80.57;52.20;;;17.80;67.20;;;;;;4954594;28;95959;-61
2023/03/30 12:51:47;;;;;;;81.82;52.35;;;17.80;67.30;;;;;;4958806;28;92007;-71
2023/03/30 12:54:39;;;;;;;83.28;52.33;;;17.90;67.40;;;;;;4958112;28;89472;-75
2023/03/30 12:57:31;;;;;;;81.95;52.17;;;17.90;67.40;;;;;;4913451;28;89818;-65
2023/03/30 13:00:35;;;;;;;81.13;52.35;;;18.00;67.30;;;;;;4957605;28;89470;-60
2023/03/30 13:03:06;;;;;;;80.05;52.13;;;18.10;66.80;;;;;;4953073;28;89856;-64